Terminal Aerodrome Forecast
Issued by NWS

Current Version | Previous Version | Text Only | Print | Product List | Glossary On
Versions: 1 2 3 4 5 6 7 8 9 10 11 12 13
000
FTUS42 TJSJ 020000 RRA
TAFJBQ
TAF
TJBQ 020021Z 0200/0224 08010KT P6SM FEW030
     FM021500 07020G35KT P6SM VCTS SCT030CB BKN040
     FM022000 14015G30KT P6SM TSRA SCT020CB BKN040
     FM022330 10010KT P6SM SCT025 SCT060
      AMD NOT SKED TIL 021100=

USA.gov is the U.S. government's official web portal to all federal, state and local government web resources and services.